TimeCST,TemperatureF,Dew PointF,Humidity,Sea Level PressureIn,VisibilityMPH,Wind Direction,Wind SpeedMPH,Gust SpeedMPH,PrecipitationIn,Events,Conditions,WindDirDegrees,DateUTC
12:52 AM,21.9,15.1,75,29.80,10.0,WSW,10.4,-,N/A,,Clear,250,2012-12-19 06:52:00
1:52 AM,19.0,12.0,74,29.81,10.0,WNW,11.5,-,N/A,,Clear,300,2012-12-19 07:52:00
2:52 AM,18.0,12.0,78,29.84,10.0,West,13.8,-,N/A,,Clear,270,2012-12-19 08:52:00
3:52 AM,17.1,9.0,71,29.85,10.0,West,15.0,-,N/A,,Clear,270,2012-12-19 09:52:00
4:52 AM,14.0,7.0,74,29.86,10.0,WSW,19.6,-,N/A,,Clear,250,2012-12-19 10:52:00
5:52 AM,14.0,6.1,71,29.88,10.0,West,12.7,23.0,N/A,,Clear,280,2012-12-19 11:52:00
6:52 AM,12.0,5.0,73,29.90,10.0,West,15.0,-,N/A,,Clear,270,2012-12-19 12:52:00
7:52 AM,10.9,5.0,77,29.92,10.0,West,12.7,-,N/A,,Clear,280,2012-12-19 13:52:00
8:52 AM,12.0,6.1,77,29.95,10.0,West,15.0,-,N/A,,Overcast,280,2012-12-19 14:52:00
9:52 AM,15.1,9.0,77,29.97,8.0,WNW,13.8,-,0.00,Snow,Light Snow,290,2012-12-19 15:52:00
10:52 AM,17.1,10.0,74,30.02,5.0,WNW,16.1,-,0.00,Snow,Light Snow,290,2012-12-19 16:52:00
11:24 AM,17.1,10.0,74,29.93,7.0,NW,15.0,21.9,0.00,Snow,Light Snow,310,2012-12-19 17:24:00
11:52 AM,16.0,9.0,74,30.03,9.0,WNW,17.3,26.5,0.00,Snow,Light Snow,290,2012-12-19 17:52:00
12:04 PM,17.1,10.0,74,29.94,9.0,WNW,15.0,27.6,0.00,Snow,Light Snow,300,2012-12-19 18:04:00
12:11 PM,17.1,10.0,74,29.95,9.0,WNW,12.7,-,0.00,Snow,Light Snow,290,2012-12-19 18:11:00
12:52 PM,17.1,10.0,74,30.04,9.0,WNW,16.1,-,0.00,Snow,Light Snow,300,2012-12-19 18:52:00
1:52 PM,17.1,10.0,74,30.06,5.0,WNW,16.1,24.2,0.00,Snow,Light Snow,290,2012-12-19 19:52:00
2:52 PM,16.0,9.0,74,30.08,10.0,NW,18.4,24.2,0.00,,Overcast,310,2012-12-19 20:52:00
3:52 PM,17.1,8.1,68,30.11,10.0,WNW,15.0,24.2,N/A,,Overcast,300,2012-12-19 21:52:00
4:52 PM,15.1,8.1,74,30.12,5.0,NNW,13.8,-,N/A,,Haze,330,2012-12-19 22:52:00
5:10 PM,12.9,7.0,77,30.03,10.0,NW,10.4,-,N/A,,Mostly Cloudy,320,2012-12-19 23:10:00
5:19 PM,12.9,7.0,77,30.03,10.0,NW,9.2,-,N/A,,Scattered Clouds,310,2012-12-19 23:19:00
5:49 PM,12.2,6.8,79,30.06,10.0,West,4.6,-,N/A,,Mostly Cloudy,280,2012-12-19 23:49:00
5:52 PM,12.9,7.0,77,30.17,10.0,West,4.6,-,N/A,,Mostly Cloudy,280,2012-12-19 23:52:00
6:20 PM,10.9,6.1,81,30.06,10.0,WNW,6.9,-,N/A,,Scattered Clouds,300,2012-12-20 00:20:00
6:52 PM,10.0,3.9,76,30.18,10.0,WNW,9.2,-,N/A,,Clear,290,2012-12-20 00:52:00
7:45 PM,12.9,8.1,81,30.08,10.0,NW,5.8,-,N/A,,Mostly Cloudy,310,2012-12-20 01:45:00
7:52 PM,12.9,8.1,81,30.19,10.0,NW,8.1,-,N/A,,Mostly Cloudy,320,2012-12-20 01:52:00
8:31 PM,12.0,7.0,80,30.08,10.0,NNW,6.9,-,N/A,,Scattered Clouds,330,2012-12-20 02:31:00
8:52 PM,12.0,7.0,80,30.19,10.0,NW,3.5,-,N/A,,Clear,310,2012-12-20 02:52:00
9:22 PM,9.0,6.1,88,30.09,10.0,SSW,3.5,-,N/A,,Mostly Cloudy,200,2012-12-20 03:22:00
9:52 PM,6.1,3.0,87,30.21,10.0,Calm,Calm,-,N/A,,Overcast,0,2012-12-20 03:52:00
10:52 PM,10.0,6.1,84,30.20,10.0,West,5.8,-,N/A,,Overcast,280,2012-12-20 04:52:00
11:52 PM,9.0,6.1,88,30.22,10.0,SSE,3.5,-,N/A,,Mostly Cloudy,150,2012-12-20 05:52:00